createdAt,value
2022-08-23T00:01:01.845Z,99851.23
2022-08-23T00:02:09.118Z,99849.79
2022-08-23T00:03:14.062Z,99849.79
2022-08-23T00:04:22.703Z,99854.42
2022-08-23T00:05:27.254Z,99852.73
2022-08-23T00:06:32.844Z,99854.88
2022-08-23T00:07:39.085Z,99854.88
2022-08-23T00:08:47.424Z,99849.63
2022-08-23T00:09:49.247Z,99851.75
2022-08-23T00:10:53.270Z,99851.75
2022-08-23T00:12:15.113Z,99853.90
2022-08-23T00:13:19.155Z,99853.90
2022-08-23T00:14:26.128Z,99853.90
2022-08-23T00:15:30.172Z,99860.65
2022-08-23T00:16:35.871Z,99851.84
2022-08-23T00:17:39.916Z,99849.11
2022-08-23T00:18:49.420Z,99850.19
2022-08-23T00:19:49.599Z,99850.19
2022-08-23T00:20:53.841Z,99855.25
2022-08-23T00:21:57.915Z,99854.42
2022-08-23T00:23:02.041Z,99854.42
2022-08-23T00:24:08.145Z,99855.70
2022-08-23T00:25:14.067Z,99854.05
2022-08-23T00:26:20.955Z,99854.05
2022-08-23T00:27:25.063Z,99852.14
2022-08-23T00:28:29.458Z,99852.14
2022-08-23T00:29:36.466Z,99849.05
2022-08-23T00:30:43.112Z,99849.05
2022-08-23T00:31:47.742Z,99849.27
2022-08-23T00:32:51.795Z,99849.27
2022-08-23T00:33:57.461Z,99849.10
2022-08-23T00:35:02.128Z,99857.91
2022-08-23T00:36:06.246Z,99856.22
2022-08-23T00:37:12.253Z,99856.22
2022-08-23T00:38:33.750Z,99854.56
2022-08-23T00:39:22.150Z,99852.91
2022-08-23T00:40:26.337Z,99852.91
2022-08-23T00:41:31.386Z,99861.55
2022-08-23T00:42:57.502Z,99853.36
2022-08-23T00:44:02.619Z,99863.42
2022-08-23T00:45:07.023Z,99859.25
2022-08-23T00:46:34.678Z,99859.25
2022-08-23T00:47:38.822Z,99863.05
2022-08-23T00:48:43.012Z,99858.05
2022-08-23T00:49:49.996Z,99858.05
2022-08-23T00:51:02.559Z,99875.48
2022-08-23T00:52:15.382Z,99875.48
2022-08-23T00:53:28.207Z,99877.60
2022-08-23T00:54:33.313Z,99874.88
2022-08-23T00:55:39.384Z,99876.98
2022-08-23T00:56:43.615Z,99873.63
2022-08-23T00:57:47.735Z,99877.44
2022-08-23T00:58:52.245Z,99877.44
2022-08-23T00:59:56.233Z,99882.89
2022-08-23T01:01:02.983Z,99877.44
2022-08-23T01:02:07.953Z,99887.28
2022-08-23T01:03:13.986Z,99881.82
2022-08-23T01:04:20.683Z,99881.20
2022-08-23T01:05:27.658Z,99885.45
2022-08-23T01:06:56.477Z,99889.84
2022-08-23T01:08:01.326Z,99886.28
2022-08-23T01:09:08.539Z,99882.91
2022-08-23T01:10:20.154Z,99882.08
2022-08-23T01:11:24.426Z,99884.19
2022-08-23T01:12:34.118Z,99883.60
2022-08-23T01:13:44.047Z,99883.60
2022-08-23T01:15:03.031Z,99875.45
2022-08-23T01:16:16.282Z,99879.02
2022-08-23T01:17:23.287Z,99717.12
2022-08-23T01:18:30.147Z,99878.42
2022-08-23T01:19:45.770Z,99876.73
2022-08-23T01:21:12.923Z,99888.48
2022-08-23T01:22:22.854Z,99878.42
2022-08-23T01:23:41.730Z,99885.99
2022-08-23T01:25:06.018Z,99878.87
2022-08-23T01:25:56.018Z,99883.92
2022-08-23T01:27:00.276Z,99881.44
2022-08-23T01:28:04.778Z,99878.70
2022-08-23T01:29:08.878Z,99844.03
2022-08-23T01:30:16.627Z,99878.09
2022-08-23T01:31:24.424Z,99878.09
2022-08-23T01:32:28.458Z,99877.47
2022-08-23T01:33:32.954Z,99876.40
2022-08-23T01:34:37.106Z,99876.40
2022-08-23T01:35:45.715Z,99880.20
2022-08-23T01:36:49.950Z,99874.53
2022-08-23T01:37:54.179Z,99874.73
2022-08-23T01:38:58.360Z,99874.73
2022-08-23T01:40:02.424Z,99879.98
2022-08-23T01:41:06.581Z,99879.98
2022-08-23T01:42:10.554Z,99878.09
2022-08-23T01:43:17.200Z,99876.84
2022-08-23T01:44:21.204Z,99885.20
2022-08-23T01:45:26.873Z,99885.20
2022-08-23T01:46:31.010Z,99882.27
2022-08-23T01:47:35.080Z,99885.20
2022-08-23T01:48:39.498Z,99885.20
2022-08-23T01:49:43.546Z,99892.34
2022-08-23T01:50:48.354Z,99888.55
2022-08-23T01:51:52.462Z,99888.17
2022-08-23T01:52:56.767Z,99893.20
2022-08-23T01:54:00.810Z,99889.83
2022-08-23T01:55:06.526Z,99892.77
2022-08-23T01:56:14.310Z,99892.77
2022-08-23T01:57:18.363Z,99889.00
2022-08-23T01:58:22.669Z,99896.34
2022-08-23T01:59:27.058Z,99888.17
2022-08-23T02:00:34.225Z,99889.00
2022-08-23T02:01:38.766Z,99890.66
2022-08-23T02:02:42.923Z,99890.66
2022-08-23T02:03:48.483Z,99899.91
2022-08-23T02:04:54.227Z,99896.11
2022-08-23T02:05:58.945Z,99901.11
2022-08-23T02:07:03.070Z,99897.34
2022-08-23T02:08:08.430Z,99897.34
2022-08-23T02:09:17.147Z,99901.11
2022-08-23T02:10:19.491Z,99899.01
2022-08-23T02:11:25.708Z,99903.63
2022-08-23T02:12:29.836Z,99895.66
2022-08-23T02:13:33.733Z,99888.55
2022-08-23T02:14:37.721Z,99900.08
2022-08-23T02:15:46.225Z,99896.90
2022-08-23T02:17:02.967Z,99896.90
2022-08-23T02:18:00.078Z,99897.97
2022-08-23T02:19:07.067Z,99897.97
2022-08-23T02:20:12.703Z,99904.70
2022-08-23T02:21:16.904Z,99894.63
2022-08-23T02:22:21.027Z,99900.70
2022-08-23T02:23:25.243Z,99891.89
2022-08-23T02:24:29.273Z,99902.80
2022-08-23T02:25:33.478Z,99906.16
2022-08-23T02:26:39.978Z,99907.81
2022-08-23T02:27:45.780Z,99906.56
2022-08-23T02:28:52.531Z,99906.56
2022-08-23T02:29:58.290Z,99905.29
2022-08-23T02:31:03.432Z,99903.84
2022-08-23T02:32:10.431Z,99910.37
2022-08-23T02:33:18.367Z,99914.16
2022-08-23T02:34:22.814Z,99911.20
2022-08-23T02:35:28.641Z,99909.92
2022-08-23T02:36:34.258Z,99912.89
2022-08-23T02:37:38.697Z,99912.89
2022-08-23T02:38:42.661Z,99904.91
2022-08-23T02:39:46.698Z,99911.64
2022-08-23T02:40:52.990Z,99913.58
2022-08-23T02:41:57.163Z,99913.58
2022-08-23T02:43:01.221Z,99910.84
2022-08-23T02:44:05.830Z,99913.81
2022-08-23T02:45:10.279Z,99913.81
2022-08-23T02:46:15.872Z,99908.36
2022-08-23T02:47:20.008Z,99910.47
2022-08-23T02:48:24.059Z,99906.53
2022-08-23T02:49:29.501Z,99906.53
2022-08-23T02:50:34.170Z,99906.94
2022-08-23T02:51:40.439Z,99907.56
2022-08-23T02:52:44.580Z,99907.56
2022-08-23T02:53:48.614Z,99907.56
2022-08-23T02:54:53.283Z,99920.58
2022-08-23T02:55:58.579Z,99920.58
2022-08-23T02:57:03.108Z,99911.12
2022-08-23T02:58:07.220Z,99913.02
2022-08-23T02:59:11.266Z,99916.19
2022-08-23T03:00:17.122Z,99916.81
2022-08-23T03:01:24.366Z,99917.84
2022-08-23T03:02:28.497Z,99917.84
2022-08-23T03:03:32.769Z,99913.91
2022-08-23T03:04:38.599Z,99924.37
2022-08-23T03:05:43.047Z,99924.37
2022-08-23T03:06:47.303Z,99918.91
2022-08-23T03:07:51.378Z,99924.16
2022-08-23T03:08:56.704Z,99920.58
2022-08-23T03:10:02.170Z,99928.34
2022-08-23T03:11:11.860Z,99928.34
2022-08-23T03:12:17.232Z,99924.75
2022-08-23T03:13:21.653Z,99924.75
2022-08-23T03:14:25.972Z,99918.02
2022-08-23T03:15:30.100Z,99926.38
2022-08-23T03:16:36.649Z,99925.93
2022-08-23T03:17:40.481Z,99925.93
2022-08-23T03:18:44.693Z,99935.56
2022-08-23T03:19:48.825Z,99935.56
2022-08-23T03:20:52.857Z,99942.71
2022-08-23T03:21:57.190Z,99942.71
2022-08-23T03:23:01.813Z,99933.64
2022-08-23T03:24:10.151Z,99930.08
2022-08-23T03:25:12.650Z,99933.42
2022-08-23T03:26:20.476Z,99939.27
2022-08-23T03:27:24.561Z,99943.44
2022-08-23T03:28:29.940Z,99947.20
2022-08-23T03:29:34.528Z,99930.42
2022-08-23T03:30:38.769Z,99950.97
2022-08-23T03:31:43.219Z,99950.97
2022-08-23T03:32:49.168Z,99939.81
2022-08-23T03:33:53.163Z,99939.81
2022-08-23T03:34:57.197Z,99943.78
2022-08-23T03:36:03.714Z,99943.78
2022-08-23T03:37:07.880Z,99942.30
2022-08-23T03:38:14.490Z,99948.37
2022-08-23T03:39:18.710Z,99947.09
2022-08-23T03:40:30.119Z,99950.66
2022-08-23T03:41:31.106Z,99950.66
2022-08-23T03:42:35.261Z,99950.82
2022-08-23T03:43:39.944Z,99945.74
2022-08-23T03:44:44.848Z,99945.74
2022-08-23T03:50:24.366Z,99957.82
2022-08-23T03:51:33.453Z,99957.82
2022-08-23T03:52:37.907Z,99954.05
2022-08-23T03:53:42.006Z,99961.17
2022-08-23T03:54:46.156Z,99958.44
2022-08-23T03:55:51.064Z,99958.44
2022-08-23T03:57:01.564Z,99962.62
2022-08-23T03:58:06.977Z,99961.34
2022-08-23T03:59:11.638Z,99960.43
2022-08-23T04:00:20.294Z,99962.12
2022-08-23T04:01:28.442Z,99962.12
2022-08-23T04:02:38.656Z,99966.27
2022-08-23T04:03:58.616Z,99966.27
2022-08-23T04:05:08.961Z,99971.30
2022-08-23T04:06:20.700Z,99971.30
2022-08-23T04:07:26.855Z,99973.50
2022-08-23T04:08:33.915Z,99973.50
2022-08-23T04:09:36.640Z,99986.80
2022-08-23T04:10:41.364Z,99986.80
2022-08-23T04:11:45.559Z,99980.05
2022-08-23T04:12:49.796Z,99986.91
2022-08-23T04:13:53.901Z,99979.94
2022-08-23T04:14:57.934Z,99982.80
2022-08-23T04:16:04.387Z,99991.77
2022-08-23T04:17:08.539Z,99982.33
2022-08-23T04:18:13.854Z,99982.33
2022-08-23T04:19:20.326Z,99985.83
2022-08-23T04:20:26.817Z,99993.18
2022-08-23T04:21:32.419Z,99987.61
2022-08-23T04:22:36.557Z,99999.30
2022-08-23T04:23:46.533Z,99999.30
2022-08-23T04:24:52.939Z,99993.20
2022-08-23T04:25:58.190Z,99993.20
2022-08-23T04:27:03.076Z,99999.42
2022-08-23T04:28:11.981Z,99996.24
2022-08-23T04:29:33.967Z,100001.16
2022-08-23T04:30:24.616Z,100001.16
2022-08-23T04:31:34.480Z,99999.86
2022-08-23T04:32:36.158Z,100000.00
2022-08-23T04:33:44.747Z,100000.00
2022-08-23T04:34:51.340Z,100011.55
2022-08-23T04:35:57.295Z,100008.11
2022-08-23T04:37:01.903Z,100013.75
2022-08-23T04:38:24.726Z,100013.75
2022-08-23T04:39:12.201Z,100010.05
2022-08-23T04:40:17.073Z,100010.05
2022-08-23T04:41:21.246Z,100010.75
2022-08-23T04:42:27.489Z,100009.94
2022-08-23T04:43:33.787Z,100009.94
2022-08-23T04:44:37.833Z,100011.09
2022-08-23T04:45:42.056Z,100018.72
2022-08-23T04:46:46.264Z,100018.72
2022-08-23T04:47:50.390Z,100015.49
2022-08-23T04:48:54.546Z,100012.04
2022-08-23T04:49:58.701Z,100014.25
2022-08-23T04:51:03.247Z,100011.17
2022-08-23T04:52:10.371Z,100011.17
2022-08-23T04:53:17.543Z,100013.06
2022-08-23T04:54:22.554Z,100015.91
2022-08-23T04:55:28.590Z,100015.91
2022-08-23T04:56:36.180Z,100018.27
2022-08-23T04:57:40.596Z,100019.43
2022-08-23T04:58:46.996Z,100018.61
2022-08-23T04:59:51.042Z,100016.09
2022-08-23T05:00:58.183Z,100022.67
2022-08-23T05:02:02.219Z,100022.67
2022-08-23T05:03:06.428Z,100015.42
2022-08-23T05:04:10.791Z,100018.73
2022-08-23T05:05:20.295Z,100018.73
2022-08-23T05:06:24.734Z,100024.81
2022-08-23T05:07:42.678Z,100030.41
2022-08-23T05:08:37.555Z,100027.97
2022-08-23T05:09:41.585Z,100023.08
2022-08-23T05:10:47.132Z,100023.08
2022-08-23T05:11:55.531Z,100020.47
2022-08-23T05:13:03.158Z,100020.47
2022-08-23T05:14:07.038Z,100034.23
2022-08-23T05:15:11.801Z,100027.66
2022-08-23T05:16:18.586Z,100027.66
2022-08-23T05:17:22.704Z,100037.55
2022-08-23T05:18:29.562Z,100028.16
2022-08-23T05:19:36.555Z,100028.16
2022-08-23T05:20:47.966Z,100035.12
2022-08-23T05:21:57.118Z,100035.12
2022-08-23T05:23:01.911Z,100027.06
2022-08-23T05:24:07.591Z,100045.22
2022-08-23T05:25:13.435Z,100040.77
2022-08-23T05:26:18.548Z,100040.77
2022-08-23T05:27:22.519Z,100032.97
2022-08-23T05:28:29.590Z,100041.30
2022-08-23T05:29:33.748Z,100040.21
2022-08-23T05:30:37.836Z,100043.22
2022-08-23T05:31:42.186Z,100040.30
2022-08-23T05:32:46.310Z,100047.68
2022-08-23T05:33:50.728Z,100049.37
2022-08-23T05:34:54.761Z,100049.43
2022-08-23T05:35:58.808Z,100049.43
2022-08-23T05:37:04.697Z,100045.31
2022-08-23T05:38:08.789Z,100046.55
2022-08-23T05:39:12.761Z,100052.14
2022-08-23T05:40:21.736Z,100042.89
2022-08-23T05:41:37.933Z,100053.47
2022-08-23T05:42:31.473Z,100053.47
2022-08-23T05:43:35.890Z,100046.14
2022-08-23T05:44:39.989Z,100053.05
2022-08-23T05:45:44.023Z,100049.44
2022-08-23T05:46:48.775Z,100049.44
2022-08-23T05:47:55.756Z,100048.58
2022-08-23T05:48:58.819Z,100048.58
2022-08-23T05:50:03.019Z,100043.75
2022-08-23T05:51:24.879Z,100042.10
2022-08-23T05:52:28.981Z,100054.83
2022-08-23T05:53:33.020Z,100055.73
2022-08-23T05:54:37.749Z,100066.23
2022-08-23T05:55:41.855Z,100066.23
2022-08-23T05:56:45.958Z,100062.41
2022-08-23T05:57:51.117Z,100062.41
2022-08-23T05:59:00.014Z,100062.61
2022-08-23T06:00:05.373Z,100062.61
2022-08-23T06:01:10.640Z,100057.84
2022-08-23T06:02:16.652Z,100057.84
2022-08-23T06:03:20.424Z,100052.78
2022-08-23T06:04:24.631Z,100052.78
2022-08-23T06:05:28.981Z,100052.42
2022-08-23T06:06:37.787Z,100052.73
2022-08-23T06:07:42.075Z,100052.73
2022-08-23T06:08:47.381Z,100062.70
2022-08-23T06:09:51.351Z,100062.12
2022-08-23T06:11:12.996Z,100062.12
2022-08-23T06:12:17.132Z,100062.19
2022-08-23T06:13:21.290Z,100072.16
2022-08-23T06:14:26.983Z,100072.16
2022-08-23T06:15:31.787Z,100069.53
2022-08-23T06:16:38.790Z,100079.50
2022-08-23T06:17:42.944Z,100078.41
2022-08-23T06:18:48.865Z,100078.47
2022-08-23T06:19:54.317Z,100086.79
2022-08-23T06:21:03.661Z,100086.79
2022-08-23T06:22:07.727Z,100076.36
2022-08-23T06:23:12.087Z,100086.55
2022-08-23T06:24:16.137Z,100086.55
2022-08-23T06:25:20.129Z,100083.05
2022-08-23T06:26:30.460Z,100025.16
2022-08-23T06:27:34.419Z,100025.16
2022-08-23T06:28:44.125Z,100082.15
2022-08-23T06:29:44.793Z,100082.15
2022-08-23T06:30:48.896Z,100092.87
2022-08-23T06:31:54.723Z,100092.87
2022-08-23T06:32:58.725Z,100094.52
2022-08-23T06:34:02.874Z,100094.52
2022-08-23T06:35:33.164Z,100101.71
2022-08-23T06:36:17.238Z,100101.19
2022-08-23T06:37:22.280Z,100103.12
2022-08-23T06:38:27.999Z,100103.12
2022-08-23T06:39:37.197Z,100106.23
2022-08-23T06:40:39.185Z,100106.23
2022-08-23T06:41:46.562Z,100120.94
2022-08-23T06:42:52.127Z,100120.94
2022-08-23T06:43:57.862Z,100117.00
2022-08-23T06:45:01.969Z,100118.66
2022-08-23T06:46:12.869Z,100118.66
2022-08-23T06:47:16.987Z,100124.58
2022-08-23T06:48:22.750Z,100143.56
2022-08-23T06:49:26.945Z,100143.56
2022-08-23T06:50:32.832Z,100123.75
2022-08-23T06:51:41.430Z,100126.08
2022-08-23T06:52:48.565Z,100126.08
2022-08-23T06:53:57.829Z,100126.72
2022-08-23T06:55:13.821Z,100126.72
2022-08-23T06:56:25.580Z,100121.95
2022-08-23T06:57:31.357Z,100129.45
2022-08-23T06:58:55.420Z,100129.45
2022-08-23T07:00:43.076Z,100147.06
2022-08-23T07:01:45.229Z,100147.06
2022-08-23T07:02:36.959Z,100134.67
2022-08-23T07:03:41.040Z,100128.87
2022-08-23T07:04:45.154Z,100134.63
2022-08-23T07:05:51.197Z,100134.63
2022-08-23T07:06:55.628Z,100134.88
2022-08-23T07:08:03.119Z,100151.31
2022-08-23T07:09:07.353Z,100147.78
2022-08-23T07:10:12.109Z,100147.78
2022-08-23T07:11:16.073Z,100144.17
2022-08-23T07:12:20.183Z,100143.67
2022-08-23T07:13:24.382Z,100151.08
2022-08-23T07:14:29.294Z,100151.08
2022-08-23T07:15:33.341Z,100139.76
2022-08-23T07:16:40.881Z,100150.31
2022-08-23T07:17:44.981Z,100147.03
2022-08-23T07:18:49.300Z,100147.03
2022-08-23T07:19:54.815Z,100127.86
2022-08-23T07:21:01.716Z,100150.61
2022-08-23T07:22:07.951Z,100148.91
2022-08-23T07:23:12.102Z,100148.91
2022-08-23T07:24:18.339Z,100143.56
2022-08-23T07:25:22.458Z,100149.66
2022-08-23T07:26:30.349Z,100149.66
2022-08-23T07:27:37.120Z,100141.41
2022-08-23T07:28:44.021Z,100145.27
2022-08-23T07:29:47.983Z,100148.03
2022-08-23T07:30:53.520Z,100148.03
2022-08-23T07:31:58.233Z,100145.67
2022-08-23T07:33:03.748Z,100145.67
2022-08-23T07:34:10.184Z,100151.62
2022-08-23T07:35:14.292Z,100154.30
2022-08-23T07:36:21.100Z,100154.30
2022-08-23T07:37:25.176Z,100148.38
2022-08-23T07:38:30.590Z,100148.38
2022-08-23T07:39:34.938Z,100160.56
2022-08-23T07:40:40.775Z,100155.34
2022-08-23T07:41:45.787Z,100147.34
2022-08-23T07:42:50.677Z,100147.84
2022-08-23T07:43:54.648Z,100147.84
2022-08-23T07:45:00.154Z,100157.52
2022-08-23T07:46:04.463Z,100149.58
2022-08-23T07:47:08.507Z,100158.39
2022-08-23T07:48:14.252Z,100158.39
2022-08-23T07:49:18.368Z,100152.18
2022-08-23T07:50:23.682Z,100154.69
2022-08-23T07:51:30.572Z,100154.69
2022-08-23T07:52:34.794Z,100155.77
2022-08-23T07:53:43.020Z,100155.77
2022-08-23T07:54:48.457Z,100156.05
2022-08-23T07:55:53.057Z,100154.81
2022-08-23T07:57:02.023Z,100154.81
2022-08-23T07:58:05.989Z,100163.56
2022-08-23T07:59:10.441Z,100164.83
2022-08-23T08:00:18.860Z,100163.09
2022-08-23T08:01:26.178Z,100161.16
2022-08-23T08:02:30.515Z,100161.16
2022-08-23T08:03:38.365Z,100163.63
2022-08-23T08:04:42.364Z,100159.73
2022-08-23T08:05:46.982Z,100159.73
2022-08-23T08:07:10.435Z,100175.75
2022-08-23T08:07:57.285Z,100175.75
2022-08-23T08:09:01.977Z,100162.91
2022-08-23T08:10:06.650Z,100154.36
2022-08-23T08:11:12.478Z,100154.36
2022-08-23T08:12:17.645Z,100150.06
2022-08-23T08:13:22.042Z,100162.52
2022-08-23T08:14:26.066Z,100162.52
2022-08-23T08:15:30.092Z,100164.20
2022-08-23T08:16:40.322Z,100159.31
2022-08-23T08:17:45.842Z,100168.66
2022-08-23T08:18:50.321Z,100164.25
2022-08-23T08:19:54.360Z,100170.14
2022-08-23T08:20:58.516Z,100160.61
2022-08-23T08:22:02.577Z,100160.38
2022-08-23T08:23:06.587Z,100158.48
2022-08-23T08:24:12.486Z,100158.48
2022-08-23T08:25:16.907Z,100165.15
2022-08-23T08:26:22.488Z,100157.70
2022-08-23T08:27:26.526Z,100166.34
2022-08-23T08:28:30.566Z,100166.39
2022-08-23T08:29:34.616Z,100166.39
2022-08-23T08:30:38.981Z,100166.74
2022-08-23T08:31:45.210Z,100166.74
2022-08-23T08:32:49.318Z,100171.91
2022-08-23T08:33:53.457Z,100171.91
2022-08-23T08:34:57.623Z,100164.70
2022-08-23T08:36:03.266Z,100174.01
2022-08-23T08:37:07.998Z,100174.83
2022-08-23T08:38:13.329Z,100175.12
2022-08-23T08:39:23.195Z,100159.72
2022-08-23T08:40:33.460Z,100176.56
2022-08-23T08:42:03.900Z,100178.78
2022-08-23T08:43:16.437Z,100168.91
2022-08-23T08:44:35.422Z,100175.27
2022-08-23T08:46:09.222Z,100175.27
2022-08-23T08:47:16.230Z,100174.27
2022-08-23T08:48:23.216Z,100175.34
2022-08-23T08:49:39.221Z,100192.16
2022-08-23T08:50:51.967Z,100172.30
2022-08-23T08:52:00.527Z,100172.30
2022-08-23T08:53:22.083Z,100167.06
2022-08-23T08:54:29.938Z,100167.06
2022-08-23T08:55:36.915Z,100172.91
2022-08-23T08:56:41.523Z,100163.80
2022-08-23T08:57:48.549Z,100186.71
2022-08-23T08:59:02.764Z,100170.19
2022-08-23T09:00:13.008Z,100171.30
2022-08-23T09:01:18.974Z,100171.30
2022-08-23T09:02:42.760Z,100168.31
2022-08-23T09:03:35.729Z,100173.35
2022-08-23T09:04:39.874Z,100173.35
2022-08-23T09:05:51.771Z,100177.25
2022-08-23T09:06:58.992Z,100157.39
2022-08-23T09:08:34.270Z,100157.39
2022-08-23T09:10:03.747Z,100161.03
2022-08-23T09:11:27.345Z,100162.16
2022-08-23T09:12:34.414Z,100180.14
2022-08-23T09:14:08.183Z,100167.67
2022-08-23T09:15:27.862Z,100171.77
2022-08-23T09:16:53.273Z,100171.77
2022-08-23T09:18:00.485Z,100172.27
2022-08-23T09:19:07.539Z,100181.09
2022-08-23T09:20:16.226Z,100181.09
2022-08-23T09:21:22.909Z,100185.41
2022-08-23T09:22:32.435Z,100184.84
2022-08-23T09:23:39.423Z,100179.33
2022-08-23T09:24:45.746Z,100164.66
2022-08-23T09:25:57.095Z,100176.53
2022-08-23T09:27:02.634Z,100175.13
2022-08-23T09:28:07.151Z,100174.34
2022-08-23T09:29:26.563Z,100174.34
2022-08-23T09:30:48.982Z,100186.78
2022-08-23T09:31:58.265Z,100176.84
2022-08-23T09:33:07.087Z,100182.20
2022-08-23T09:34:15.457Z,100182.20
2022-08-23T09:35:26.308Z,100187.75
2022-08-23T09:36:37.463Z,100196.13
2022-08-23T09:37:53.462Z,100196.13
2022-08-23T09:39:00.806Z,100193.38
2022-08-23T09:40:19.641Z,100222.09
2022-08-23T09:41:28.380Z,100222.09
2022-08-23T09:42:37.876Z,100186.50
2022-08-23T09:43:46.680Z,100202.83
2022-08-23T09:44:50.856Z,100202.83
2022-08-23T09:45:57.882Z,100200.10
2022-08-23T09:47:10.763Z,100188.77
2022-08-23T09:48:17.260Z,100178.58
2022-08-23T09:49:29.734Z,100178.58
2022-08-23T09:50:42.760Z,100168.61
2022-08-23T09:51:48.180Z,100175.26
2022-08-23T09:53:04.219Z,100172.77
2022-08-23T09:54:15.929Z,100176.94
2022-08-23T09:55:39.129Z,100177.25
2022-08-23T09:56:46.238Z,100168.68
2022-08-23T09:57:52.517Z,100154.86
2022-08-23T09:58:56.637Z,100154.86
2022-08-23T10:00:18.688Z,100183.08
2022-08-23T10:01:28.613Z,100163.72
2022-08-23T10:02:35.288Z,100178.11
2022-08-23T10:03:40.383Z,100185.84
2022-08-23T10:04:47.481Z,100167.05
2022-08-23T10:05:56.368Z,100167.05
2022-08-23T10:07:48.643Z,100158.75
2022-08-23T10:08:10.262Z,100164.55
2022-08-23T10:09:33.591Z,100164.55
2022-08-23T10:10:43.675Z,100178.66
2022-08-23T10:11:50.866Z,100166.77
2022-08-23T10:12:56.253Z,100176.16
2022-08-23T10:14:00.460Z,100169.23
2022-08-23T10:15:06.325Z,100179.48
2022-08-23T10:16:32.452Z,100179.48
2022-08-23T10:17:45.225Z,100175.33
2022-08-23T10:19:11.192Z,100163.73
2022-08-23T10:20:38.719Z,100156.80
2022-08-23T10:22:17.586Z,100165.92
2022-08-23T10:23:39.636Z,100188.08
2022-08-23T10:24:49.969Z,100184.22
2022-08-23T10:25:57.067Z,100175.06
2022-08-23T10:27:12.848Z,100167.05
2022-08-23T10:28:31.506Z,100173.41
2022-08-23T10:29:43.013Z,100173.41
2022-08-23T10:31:02.068Z,100194.17
2022-08-23T10:32:14.621Z,100182.27
2022-08-23T10:33:25.893Z,100175.61
2022-08-23T10:34:50.708Z,100157.61
2022-08-23T10:36:17.783Z,100176.98
2022-08-23T10:37:35.322Z,100185.84
2022-08-23T10:38:57.485Z,100162.02
2022-08-23T10:40:26.997Z,100179.75
2022-08-23T10:41:40.073Z,100166.73
2022-08-23T10:42:50.006Z,100168.66
2022-08-23T10:44:11.683Z,100168.66
2022-08-23T10:45:27.366Z,100170.31
2022-08-23T10:46:34.730Z,100165.89
2022-08-23T10:47:41.528Z,100165.89
2022-08-23T10:48:48.498Z,100176.66
2022-08-23T10:49:54.626Z,100155.61
2022-08-23T10:51:01.756Z,100155.61
2022-08-23T10:52:10.378Z,100157.23
2022-08-23T10:53:19.387Z,100148.38
2022-08-23T10:54:26.503Z,100160.29
2022-08-23T10:55:34.645Z,100167.52
2022-08-23T10:56:48.493Z,100167.52
2022-08-23T10:57:48.410Z,100192.45
2022-08-23T10:59:16.126Z,100177.17
2022-08-23T11:00:23.404Z,100180.78
2022-08-23T11:01:42.047Z,100166.88
2022-08-23T11:02:49.166Z,100170.20
2022-08-23T11:04:05.160Z,100191.86
2022-08-23T11:05:20.972Z,100191.86
2022-08-23T11:06:28.328Z,100175.19
2022-08-23T11:07:40.751Z,100164.08
2022-08-23T11:08:48.144Z,100161.87
2022-08-23T11:09:55.182Z,100161.87
2022-08-23T11:10:59.512Z,100171.30
2022-08-23T11:12:26.179Z,100156.33
2022-08-23T11:13:32.309Z,100162.39
2022-08-23T11:14:44.804Z,100162.39
2022-08-23T11:16:03.887Z,100160.17
2022-08-23T11:17:13.596Z,100160.17
2022-08-23T11:18:41.320Z,100180.42
2022-08-23T11:19:51.235Z,100180.42
2022-08-23T11:20:58.483Z,100174.62
2022-08-23T11:22:14.339Z,100160.20
2022-08-23T11:23:32.806Z,100160.20
2022-08-23T11:24:39.792Z,100153.78
2022-08-23T11:25:45.318Z,100174.86
2022-08-23T11:26:52.386Z,100174.86
2022-08-23T11:28:32.789Z,100206.70
2022-08-23T11:29:39.421Z,100206.70
2022-08-23T11:30:48.512Z,100167.89
2022-08-23T11:32:04.077Z,100167.89
2022-08-23T11:33:25.202Z,100169.55
2022-08-23T11:34:33.704Z,100169.55
2022-08-23T11:35:46.530Z,100166.98
2022-08-23T11:37:21.975Z,100149.53
2022-08-23T11:38:45.231Z,100149.53
2022-08-23T11:40:02.661Z,100182.80
2022-08-23T11:41:15.291Z,100177.26
2022-08-23T11:42:20.312Z,100165.89
2022-08-23T11:43:27.283Z,100165.89
2022-08-23T11:44:38.522Z,100164.19
2022-08-23T11:45:47.508Z,100192.74
2022-08-23T11:46:56.518Z,100178.33
2022-08-23T11:48:21.455Z,100181.41
2022-08-23T11:49:32.452Z,100181.41
2022-08-23T11:50:59.514Z,100171.14
2022-08-23T11:52:22.920Z,100171.14
2022-08-23T11:53:46.472Z,100181.16
2022-08-23T11:55:08.287Z,100172.86
2022-08-23T11:56:30.592Z,100178.92
2022-08-23T11:57:49.534Z,100163.67
2022-08-23T11:59:16.004Z,100171.71
2022-08-23T12:00:29.238Z,100174.22
2022-08-23T12:01:41.221Z,100158.92
2022-08-23T12:02:55.437Z,100158.92
2022-08-23T12:04:06.225Z,100159.47
2022-08-23T12:05:20.250Z,100160.60
2022-08-23T12:06:50.910Z,100160.60
2022-08-23T12:08:01.376Z,100159.47
2022-08-23T12:09:26.937Z,100163.31
2022-08-23T12:10:45.926Z,100163.31
2022-08-23T12:11:55.713Z,100162.22
2022-08-23T12:13:22.678Z,100162.22
2022-08-23T12:14:44.698Z,100154.14
2022-08-23T12:16:17.831Z,100154.14
2022-08-23T12:17:25.029Z,100149.97
2022-08-23T12:18:30.599Z,100161.85
2022-08-23T12:19:40.382Z,100161.85
2022-08-23T12:20:48.605Z,100165.96
2022-08-23T12:21:54.386Z,100167.64
2022-08-23T12:23:04.115Z,100167.64
2022-08-23T12:24:26.304Z,100150.10
2022-08-23T12:25:31.136Z,100169.83
2022-08-23T12:26:58.643Z,100160.95
2022-08-23T12:28:36.144Z,100174.56
2022-08-23T12:30:01.332Z,100174.56
2022-08-23T12:31:13.632Z,100169.01
2022-08-23T12:32:25.757Z,100167.09
2022-08-23T12:33:49.041Z,100164.34
2022-08-23T12:35:21.507Z,100164.34
2022-08-23T12:36:30.342Z,100180.47
2022-08-23T12:38:00.063Z,100183.80
2022-08-23T12:39:10.300Z,100164.34
2022-08-23T12:40:18.270Z,100164.34
2022-08-23T12:41:25.378Z,100164.34
2022-08-23T12:42:38.222Z,100172.67
2022-08-23T12:43:45.256Z,100166.00
2022-08-23T12:44:54.926Z,100155.20
2022-08-23T12:46:02.243Z,100155.20
2022-08-23T12:47:18.220Z,100187.36
2022-08-23T12:48:26.647Z,100167.73
2022-08-23T12:49:33.607Z,100175.81
2022-08-23T12:50:40.819Z,100175.81
2022-08-23T12:51:53.101Z,100175.56
2022-08-23T12:53:00.531Z,100179.42
2022-08-23T12:54:16.232Z,100179.42
2022-08-23T12:55:20.649Z,100179.76
2022-08-23T12:56:32.570Z,100177.26
2022-08-23T12:57:42.163Z,100186.70
2022-08-23T12:58:48.547Z,100192.25
2022-08-23T13:00:17.213Z,100192.25
2022-08-23T13:01:29.819Z,100185.59
2022-08-23T13:02:34.718Z,100185.59
2022-08-23T13:03:42.208Z,100196.14
2022-08-23T13:04:46.810Z,100181.75
2022-08-23T13:06:03.211Z,100194.52
2022-08-23T13:07:10.326Z,100178.70
2022-08-23T13:08:21.219Z,100181.50
2022-08-23T13:09:35.554Z,100181.23
2022-08-23T13:10:44.626Z,100181.23
2022-08-23T13:11:49.348Z,100173.48
2022-08-23T13:12:53.872Z,100173.48
2022-08-23T13:13:58.792Z,100184.57